Time;durP1;ratioP1;P1;durP2;ratioP2;P2;SDS_P1;SDS_P2;PMS_P1;PMS_P2;Temp;Humidity;BMP_temperature;BMP_pressure;BME280_temperature;BME280_humidity;BME280_pressure;Samples;Min_cycle;Max_cycle;Signal;HPM_P1;HPM_P2
2022/04/03 00:02:11;;;;;;;7.65;4.40;;;4.10;51.20;;;;;;5080640;28;20044;-43
2022/04/03 00:04:38;;;;;;;9.93;5.45;;;4.00;51.20;;;;;;5082182;28;20075;-43
2022/04/03 00:07:07;;;;;;;9.60;5.07;;;4.10;51.30;;;;;;5079953;28;20071;-47
2022/04/03 00:09:34;;;;;;;5.97;3.80;;;4.10;51.30;;;;;;5080741;28;20507;-44
2022/04/03 00:12:03;;;;;;;9.90;4.95;;;4.10;51.30;;;;;;5077956;28;20071;-43
2022/04/03 00:14:30;;;;;;;7.75;4.53;;;4.10;51.30;;;;;;5081032;28;20056;-43
2022/04/03 00:16:58;;;;;;;7.85;4.82;;;4.20;51.10;;;;;;5079573;28;20718;-43
2022/04/03 00:19:26;;;;;;;8.57;3.90;;;4.20;51.10;;;;;;5079575;28;20407;-42
2022/04/03 00:21:53;;;;;;;8.77;4.53;;;4.20;51.10;;;;;;5079265;28;20059;-42
2022/04/03 00:24:22;;;;;;;11.68;4.85;;;4.10;51.10;;;;;;5081770;28;20058;-43
2022/04/03 00:26:49;;;;;;;10.63;5.20;;;4.10;51.00;;;;;;5078410;28;20415;-43
2022/04/03 00:29:17;;;;;;;12.07;4.80;;;4.10;51.00;;;;;;5079803;28;20062;-43
2022/04/03 00:31:44;;;;;;;7.97;4.03;;;4.20;51.10;;;;;;5077487;28;20044;-43
2022/04/03 00:34:12;;;;;;;7.00;4.20;;;4.20;51.10;;;;;;5080308;28;20048;-46
2022/04/03 00:36:39;;;;;;;16.73;4.97;;;4.20;51.20;;;;;;5081005;28;20055;-43
2022/04/03 00:39:07;;;;;;;8.77;4.47;;;4.20;51.30;;;;;;5080315;28;20056;-44
2022/04/03 00:41:39;;;;;;;6.78;4.43;;;4.20;51.10;;;;;;5078186;28;20047;-43
2022/04/03 00:44:07;;;;;;;8.02;3.92;;;4.20;51.10;;;;;;5083864;28;21245;-42
2022/04/03 00:46:36;;;;;;;6.90;4.43;;;4.20;51.10;;;;;;5082834;28;20064;-43
2022/04/03 00:49:04;;;;;;;8.30;4.25;;;4.20;51.20;;;;;;5084424;28;20048;-43
2022/04/03 00:51:32;;;;;;;11.18;4.13;;;4.20;51.20;;;;;;5081543;28;20056;-43
2022/04/03 00:54:00;;;;;;;9.27;4.30;;;4.30;51.10;;;;;;5081649;28;20070;-43
2022/04/03 00:56:27;;;;;;;7.60;4.13;;;4.20;51.00;;;;;;5082721;28;20043;-43
2022/04/03 00:58:56;;;;;;;7.03;4.20;;;4.30;51.20;;;;;;5082732;28;20051;-43
2022/04/03 01:01:24;;;;;;;8.02;4.25;;;4.30;51.20;;;;;;5083205;28;20056;-45
2022/04/03 01:03:52;;;;;;;6.45;4.22;;;4.30;51.30;;;;;;5082762;28;20142;-43
2022/04/03 01:06:19;;;;;;;10.98;5.00;;;4.30;51.30;;;;;;5084808;28;20052;-43
2022/04/03 01:08:47;;;;;;;7.70;4.57;;;4.30;51.10;;;;;;5079705;28;20048;-43
2022/04/03 01:11:15;;;;;;;9.68;4.50;;;4.40;51.00;;;;;;5081973;28;20805;-43
2022/04/03 01:13:46;;;;;;;10.82;4.07;;;4.40;51.00;;;;;;5082819;28;20495;-45
2022/04/03 01:16:15;;;;;;;7.90;4.55;;;4.40;51.10;;;;;;5083962;28;20047;-43
2022/04/03 01:18:43;;;;;;;9.27;4.50;;;4.40;51.00;;;;;;5084321;28;20063;-45
2022/04/03 01:21:11;;;;;;;7.35;4.47;;;4.40;51.00;;;;;;5082410;28;20048;-43
2022/04/03 01:23:39;;;;;;;9.93;4.57;;;4.40;51.10;;;;;;5084073;28;20067;-43
2022/04/03 01:26:08;;;;;;;6.90;4.15;;;4.40;50.90;;;;;;5084704;28;20063;-43
2022/04/03 01:28:36;;;;;;;7.95;4.22;;;4.40;51.00;;;;;;5083045;28;20427;-43
2022/04/03 01:31:03;;;;;;;7.82;4.82;;;4.40;51.10;;;;;;5083056;28;20709;-43
2022/04/03 01:33:31;;;;;;;7.35;4.50;;;4.40;51.10;;;;;;5080864;28;20055;-43
2022/04/03 01:35:58;;;;;;;9.55;4.78;;;4.40;51.10;;;;;;5081903;28;20055;-42
2022/04/03 01:38:26;;;;;;;8.43;4.72;;;4.40;51.10;;;;;;5075920;28;20056;-45
2022/04/03 01:40:53;;;;;;;9.43;3.90;;;4.40;51.10;;;;;;5082124;28;20055;-43
2022/04/03 01:43:22;;;;;;;7.30;4.20;;;4.40;51.20;;;;;;5082800;28;20384;-44
2022/04/03 01:45:50;;;;;;;9.98;4.93;;;4.40;51.30;;;;;;5081243;28;20487;-42
2022/04/03 01:48:18;;;;;;;7.80;4.72;;;4.40;51.20;;;;;;5083116;28;20048;-44
2022/04/03 01:50:46;;;;;;;7.50;4.50;;;4.40;51.10;;;;;;5081568;28;20044;-45
2022/04/03 01:53:14;;;;;;;10.18;4.85;;;4.40;51.20;;;;;;5080907;28;20403;-43
2022/04/03 01:55:41;;;;;;;7.22;4.40;;;4.40;51.20;;;;;;5083428;28;20051;-44
2022/04/03 01:58:09;;;;;;;7.47;4.05;;;4.40;51.30;;;;;;5081733;28;20047;-43
2022/04/03 02:00:39;;;;;;;9.25;4.68;;;4.40;51.40;;;;;;5082831;28;20055;-43
2022/04/03 02:03:07;;;;;;;8.55;4.85;;;4.40;51.60;;;;;;5081309;28;20056;-43
2022/04/03 02:05:34;;;;;;;8.65;4.35;;;4.50;51.60;;;;;;5083353;28;20051;-46
2022/04/03 02:08:02;;;;;;;9.20;4.45;;;4.50;51.40;;;;;;5082499;28;20503;-43
2022/04/03 02:10:30;;;;;;;8.57;4.60;;;4.50;51.30;;;;;;5082853;28;20048;-43
2022/04/03 02:12:57;;;;;;;8.65;4.57;;;4.50;51.30;;;;;;5078443;28;20060;-43
2022/04/03 02:15:25;;;;;;;6.80;4.30;;;4.50;51.30;;;;;;5082779;28;20055;-43
2022/04/03 02:17:54;;;;;;;7.93;4.53;;;4.50;51.30;;;;;;5083920;28;20059;-43
2022/04/03 02:20:21;;;;;;;9.07;4.68;;;4.50;51.20;;;;;;5081939;28;20631;-44
2022/04/03 02:22:49;;;;;;;9.18;4.43;;;4.50;51.30;;;;;;5080493;28;20075;-43
2022/04/03 02:25:16;;;;;;;6.15;4.30;;;4.50;51.90;;;;;;5081763;28;20076;-43
2022/04/03 02:27:46;;;;;;;7.10;4.00;;;4.50;51.50;;;;;;5079882;28;20052;-46
2022/04/03 02:30:14;;;;;;;8.48;4.75;;;4.60;51.60;;;;;;5083387;28;20059;-43
2022/04/03 02:32:42;;;;;;;6.85;4.32;;;4.60;51.70;;;;;;5078583;28;20454;-45
2022/04/03 02:35:13;;;;;;;9.18;4.75;;;4.60;51.80;;;;;;5082580;28;20048;-43
2022/04/03 02:37:42;;;;;;;9.68;4.63;;;4.60;52.00;;;;;;5083035;28;20068;-46
2022/04/03 02:40:14;;;;;;;7.07;4.10;;;4.60;51.90;;;;;;5080776;28;20044;-44
2022/04/03 02:42:42;;;;;;;8.32;4.72;;;4.60;51.80;;;;;;5080651;28;20052;-47
2022/04/03 02:45:11;;;;;;;6.15;4.28;;;4.70;51.90;;;;;;5080762;28;20063;-43
2022/04/03 02:47:39;;;;;;;7.85;4.35;;;4.70;52.20;;;;;;5083662;28;20056;-43
2022/04/03 02:50:09;;;;;;;6.05;3.95;;;4.70;51.60;;;;;;5082619;28;20411;-43
2022/04/03 02:52:37;;;;;;;6.47;4.00;;;4.70;51.70;;;;;;5080657;28;20063;-44
2022/04/03 02:55:06;;;;;;;7.63;3.83;;;4.70;51.60;;;;;;5079006;28;20078;-43
2022/04/03 02:57:33;;;;;;;9.77;4.63;;;4.70;51.50;;;;;;5080937;28;20060;-43
2022/04/03 03:00:00;;;;;;;7.85;4.80;;;4.80;51.50;;;;;;5076083;28;20048;-43
2022/04/03 03:02:31;;;;;;;10.98;4.50;;;4.70;51.30;;;;;;5079469;28;20064;-42
2022/04/03 03:04:58;;;;;;;7.10;4.28;;;4.70;51.30;;;;;;5082094;28;20419;-43
2022/04/03 03:07:38;;;;;;;6.75;4.05;;;4.70;51.40;;;;;;5079705;28;20055;-44
2022/04/03 03:10:07;;;;;;;7.60;4.85;;;4.80;51.60;;;;;;5079488;28;20415;-43
2022/04/03 03:12:34;;;;;;;9.77;5.00;;;4.80;51.70;;;;;;5077451;28;20436;-45
2022/04/03 03:15:04;;;;;;;6.75;4.53;;;4.80;51.60;;;;;;5080268;28;20060;-45
2022/04/03 03:17:31;;;;;;;9.27;4.55;;;4.80;51.50;;;;;;5082206;28;20048;-42
2022/04/03 03:19:59;;;;;;;8.32;4.50;;;4.80;52.10;;;;;;5078266;28;20056;-43
2022/04/03 03:22:26;;;;;;;7.10;4.80;;;4.80;51.60;;;;;;5080039;28;20055;-46
2022/04/03 03:24:55;;;;;;;10.30;5.22;;;4.80;51.40;;;;;;5082578;28;20056;-44
2022/04/03 03:27:23;;;;;;;8.77;4.80;;;4.80;51.20;;;;;;5083150;28;20067;-43
2022/04/03 03:29:50;;;;;;;8.27;4.70;;;4.80;51.30;;;;;;5049254;28;20053;-43
2022/04/03 03:32:18;;;;;;;15.77;5.32;;;4.80;51.40;;;;;;5071347;28;20048;-43
2022/04/03 03:34:45;;;;;;;10.98;4.97;;;4.80;51.50;;;;;;5078081;28;20059;-45
2022/04/03 03:37:12;;;;;;;7.63;4.22;;;4.80;51.20;;;;;;5067774;28;20049;-43
2022/04/03 03:39:40;;;;;;;12.65;5.18;;;4.70;51.20;;;;;;5061008;28;20048;-43
2022/04/03 03:42:09;;;;;;;11.23;5.28;;;4.70;51.30;;;;;;5059739;28;20052;-43
2022/04/03 03:44:37;;;;;;;10.40;5.70;;;4.70;51.30;;;;;;5060041;28;20048;-47
2022/04/03 03:47:05;;;;;;;12.30;5.47;;;4.70;51.40;;;;;;5060082;28;20048;-43
2022/04/03 03:49:33;;;;;;;7.38;4.82;;;4.70;51.30;;;;;;5062023;28;20072;-43
2022/04/03 03:52:00;;;;;;;7.82;4.80;;;4.60;51.20;;;;;;5060148;28;20052;-43
2022/04/03 03:54:28;;;;;;;9.10;5.43;;;4.60;51.40;;;;;;5061049;28;20274;-47
2022/04/03 03:56:55;;;;;;;9.55;5.30;;;4.60;51.50;;;;;;5057675;28;20056;-49
2022/04/03 03:59:24;;;;;;;10.18;4.75;;;4.60;51.50;;;;;;5059709;28;20049;-47
2022/04/03 04:01:52;;;;;;;9.98;4.88;;;4.50;51.30;;;;;;5059676;28;20048;-43
2022/04/03 04:04:19;;;;;;;9.75;5.18;;;4.50;51.40;;;;;;5061032;28;20059;-43
2022/04/03 04:06:48;;;;;;;9.75;5.50;;;4.50;51.60;;;;;;5060446;28;20515;-45
2022/04/03 04:09:15;;;;;;;8.25;4.60;;;4.50;51.60;;;;;;5060233;28;20844;-43
2022/04/03 04:11:43;;;;;;;10.40;5.47;;;4.50;51.40;;;;;;5059666;28;20378;-43
2022/04/03 04:14:10;;;;;;;9.50;5.20;;;4.50;51.30;;;;;;5059877;28;20087;-43
2022/04/03 04:16:40;;;;;;;7.40;4.75;;;4.50;51.20;;;;;;5057531;28;20056;-43
2022/04/03 04:19:08;;;;;;;9.20;5.00;;;4.40;51.30;;;;;;5059140;28;20052;-43
2022/04/03 04:21:35;;;;;;;8.30;5.28;;;4.40;51.50;;;;;;5060445;28;20336;-43
2022/04/03 04:24:03;;;;;;;10.20;5.22;;;4.40;51.30;;;;;;5058881;28;20068;-42
2022/04/03 04:26:30;;;;;;;9.05;4.60;;;4.40;51.40;;;;;;5059970;28;20495;-43
2022/04/03 04:28:58;;;;;;;11.73;5.60;;;4.40;51.60;;;;;;5060092;28;20056;-44
2022/04/03 04:31:25;;;;;;;8.98;4.65;;;4.40;51.70;;;;;;5057167;28;20075;-43
2022/04/03 04:33:54;;;;;;;9.85;5.80;;;4.40;51.70;;;;;;5060430;28;20048;-43
2022/04/03 04:36:22;;;;;;;7.47;4.95;;;4.40;51.80;;;;;;5065630;28;20052;-47
2022/04/03 04:38:49;;;;;;;9.88;5.65;;;4.40;51.90;;;;;;5076622;28;20052;-46
2022/04/03 04:41:17;;;;;;;13.25;5.47;;;4.40;52.00;;;;;;5077224;28;20514;-43
2022/04/03 04:43:44;;;;;;;9.48;5.32;;;4.40;52.10;;;;;;5079845;28;20063;-43
2022/04/03 04:46:12;;;;;;;11.70;5.63;;;4.40;52.20;;;;;;5079874;28;20059;-44
2022/04/03 04:48:39;;;;;;;16.05;5.40;;;4.40;52.20;;;;;;5077831;28;20052;-43
2022/04/03 04:51:09;;;;;;;7.10;4.85;;;4.40;52.10;;;;;;5080240;28;20071;-42
2022/04/03 04:53:36;;;;;;;14.38;4.97;;;4.40;52.00;;;;;;5078976;28;20067;-43
2022/04/03 04:56:04;;;;;;;13.05;5.35;;;4.40;52.10;;;;;;5079268;28;20051;-43
2022/04/03 04:58:32;;;;;;;8.55;5.40;;;4.40;52.20;;;;;;5077494;28;20056;-49
2022/04/03 05:00:59;;;;;;;12.68;5.70;;;4.50;52.20;;;;;;5080330;28;20048;-43
2022/04/03 05:03:27;;;;;;;11.93;5.63;;;4.40;52.00;;;;;;5080472;28;20052;-43
2022/04/03 05:05:55;;;;;;;8.27;5.25;;;4.40;51.90;;;;;;5079941;28;20074;-43
2022/04/03 05:08:24;;;;;;;12.65;5.78;;;4.40;52.00;;;;;;5078086;28;20403;-43
2022/04/03 05:10:53;;;;;;;8.73;5.57;;;4.30;52.00;;;;;;5077604;28;20044;-43
2022/04/03 05:13:25;;;;;;;9.40;5.43;;;4.30;52.00;;;;;;5077967;28;20507;-43
2022/04/03 05:15:53;;;;;;;6.30;4.63;;;4.30;52.20;;;;;;5080072;28;20047;-43
2022/04/03 05:18:21;;;;;;;8.50;5.03;;;4.30;52.40;;;;;;5074702;28;20056;-43
2022/04/03 05:20:48;;;;;;;8.77;5.60;;;4.30;52.50;;;;;;5076415;28;20055;-43
2022/04/03 05:23:16;;;;;;;8.55;5.60;;;4.30;52.60;;;;;;5075380;28;20055;-43
2022/04/03 05:25:45;;;;;;;7.93;5.20;;;4.20;52.20;;;;;;5079875;28;20388;-42
2022/04/03 05:28:13;;;;;;;10.10;6.03;;;4.30;52.20;;;;;;5076369;28;20492;-43
2022/04/03 05:30:40;;;;;;;11.63;5.70;;;4.30;52.20;;;;;;5083081;28;20048;-43
2022/04/03 05:33:08;;;;;;;7.80;5.10;;;4.30;52.10;;;;;;5080013;28;20056;-43
2022/04/03 05:35:35;;;;;;;5.72;4.35;;;4.20;52.10;;;;;;5081564;28;20048;-43
2022/04/03 05:38:03;;;;;;;9.05;5.55;;;4.20;52.20;;;;;;5080393;28;20055;-43
2022/04/03 05:40:30;;;;;;;9.68;5.53;;;4.20;52.50;;;;;;5081715;28;20052;-43
2022/04/03 05:43:00;;;;;;;12.15;5.97;;;4.30;52.60;;;;;;5080312;28;20443;-42
2022/04/03 05:45:27;;;;;;;8.57;5.45;;;4.30;52.40;;;;;;5080857;28;20063;-42
2022/04/03 05:47:55;;;;;;;9.73;5.07;;;4.30;52.40;;;;;;5080668;28;20411;-42
2022/04/03 05:50:23;;;;;;;8.35;5.57;;;4.30;52.50;;;;;;5081556;28;20044;-43
2022/04/03 05:52:52;;;;;;;9.07;5.45;;;4.40;52.60;;;;;;5082245;28;20048;-42
2022/04/03 05:55:22;;;;;;;9.55;5.65;;;4.40;52.60;;;;;;5081858;28;20605;-43
2022/04/03 05:57:52;;;;;;;9.35;5.22;;;4.40;52.60;;;;;;5083974;28;20060;-43
2022/04/03 06:00:23;;;;;;;12.57;6.15;;;4.40;52.70;;;;;;5078907;28;20131;-43
2022/04/03 06:02:52;;;;;;;13.00;6.22;;;4.50;52.80;;;;;;5081608;28;20055;-42
2022/04/03 06:05:22;;;;;;;9.52;6.00;;;4.50;52.90;;;;;;5080960;28;20063;-42
2022/04/03 06:07:49;;;;;;;11.50;5.88;;;4.50;52.70;;;;;;5084066;28;20418;-43
2022/04/03 06:10:18;;;;;;;9.95;6.00;;;4.50;52.80;;;;;;5082770;28;20074;-43
2022/04/03 06:12:56;;;;;;;13.00;5.78;;;4.50;52.90;;;;;;5084520;28;20052;-43
2022/04/03 06:15:27;;;;;;;7.90;5.15;;;4.60;53.00;;;;;;5083693;28;20059;-43
2022/04/03 06:17:55;;;;;;;10.23;5.30;;;4.60;52.90;;;;;;5082145;28;20423;-43
2022/04/03 06:20:23;;;;;;;10.45;6.10;;;4.60;52.90;;;;;;5082181;28;20052;-44
2022/04/03 06:22:50;;;;;;;14.27;6.55;;;4.70;53.10;;;;;;5082905;28;20188;-43
2022/04/03 06:25:18;;;;;;;10.75;6.00;;;4.70;52.90;;;;;;5082197;28;20075;-43
2022/04/03 06:27:45;;;;;;;8.88;5.53;;;4.70;53.10;;;;;;5080306;28;20503;-43
2022/04/03 06:30:14;;;;;;;9.15;5.20;;;4.70;53.60;;;;;;5082046;28;20052;-43
2022/04/03 06:32:43;;;;;;;11.15;5.55;;;4.70;53.00;;;;;;5082283;28;20052;-47
2022/04/03 06:35:11;;;;;;;8.82;5.50;;;4.70;53.00;;;;;;5082009;28;20510;-45
2022/04/03 06:37:39;;;;;;;9.23;4.88;;;4.70;52.80;;;;;;5081922;28;20424;-43
2022/04/03 06:40:08;;;;;;;7.97;5.40;;;4.80;52.80;;;;;;5080214;28;20056;-43
2022/04/03 06:42:36;;;;;;;9.10;5.78;;;4.80;52.70;;;;;;5082944;28;20056;-44
2022/04/03 06:45:05;;;;;;;11.27;5.78;;;4.80;52.60;;;;;;5081898;28;20044;-43
2022/04/03 06:47:32;;;;;;;10.68;6.35;;;4.80;52.60;;;;;;5081120;28;20056;-43
2022/04/03 06:50:02;;;;;;;9.02;5.60;;;4.90;52.70;;;;;;5082640;28;20052;-44
2022/04/03 06:52:30;;;;;;;8.80;5.25;;;4.90;52.70;;;;;;5079261;28;20048;-45
2022/04/03 06:54:57;;;;;;;8.25;5.32;;;4.90;52.80;;;;;;5079124;28;20064;-44
2022/04/03 06:57:25;;;;;;;8.20;5.40;;;4.90;52.80;;;;;;5076908;28;20067;-44
2022/04/03 06:59:52;;;;;;;8.00;5.28;;;4.90;52.90;;;;;;5079122;28;20052;-43
2022/04/03 07:02:20;;;;;;;9.77;5.68;;;4.90;53.00;;;;;;5080412;28;20052;-43
2022/04/03 07:04:47;;;;;;;9.38;5.10;;;4.90;52.90;;;;;;5082514;28;20253;-43
2022/04/03 07:07:23;;;;;;;10.18;5.90;;;5.00;52.70;;;;;;5079333;28;20058;-43
2022/04/03 07:09:51;;;;;;;11.40;6.15;;;5.00;52.80;;;;;;5080206;28;20499;-43
2022/04/03 07:12:18;;;;;;;11.02;6.05;;;5.00;52.90;;;;;;5080741;28;20051;-42
2022/04/03 07:14:46;;;;;;;8.13;5.30;;;5.00;52.80;;;;;;5082722;28;20060;-45
2022/04/03 07:17:13;;;;;;;12.75;5.95;;;5.00;52.80;;;;;;5080605;28;20510;-44
2022/04/03 07:19:41;;;;;;;8.65;5.20;;;5.00;52.80;;;;;;5082826;28;20059;-44
2022/04/03 07:22:08;;;;;;;9.38;5.40;;;5.00;52.60;;;;;;5081311;28;20063;-42
2022/04/03 07:24:37;;;;;;;12.50;6.13;;;5.00;52.40;;;;;;5079934;28;20055;-44
2022/04/03 07:27:05;;;;;;;12.95;5.93;;;5.10;52.30;;;;;;5077659;28;20056;-45
2022/04/03 07:29:33;;;;;;;11.23;5.68;;;5.10;52.20;;;;;;5079334;28;20412;-43
2022/04/03 07:33:14;;;;;;;;;;;;;;;;;;;;;
2022/04/03 07:35:43;;;;;;;13.27;6.38;;;5.10;52.50;;;;;;4960715;28;20488;-43
2022/04/03 07:38:12;;;;;;;14.82;6.45;;;5.20;52.30;;;;;;5083100;28;20048;-43
2022/04/03 07:41:26;;;;;;;11.55;5.90;;;5.20;52.30;;;;;;5088660;28;20052;-45
2022/04/03 07:44:24;;;;;;;12.45;6.20;;;5.20;52.20;;;;;;5039470;28;20709;-45
2022/04/03 07:50:13;;;;;;;9.75;6.18;;;5.30;52.30;;;;;;5065282;28;20055;-43
2022/04/03 07:52:42;;;;;;;10.80;6.35;;;5.30;52.20;;;;;;5080820;28;20059;-43
2022/04/03 07:59:01;;;;;;;12.20;6.80;;;5.20;51.70;;;;;;5085156;28;20814;-43
2022/04/03 08:01:30;;;;;;;10.93;6.18;;;5.20;52.20;;;;;;5064732;28;20527;-43
2022/04/03 08:03:58;;;;;;;12.15;6.22;;;5.20;52.80;;;;;;5080739;28;20066;-42
2022/04/03 08:06:25;;;;;;;12.18;6.97;;;5.10;52.30;;;;;;5078480;28;20048;-47
2022/04/03 08:12:08;;;;;;;12.32;7.18;;;5.10;52.80;;;;;;5024041;28;20413;-43
2022/04/03 08:14:36;;;;;;;14.18;5.60;;;5.10;52.60;;;;;;5073505;28;20081;-43
2022/04/03 08:17:05;;;;;;;10.77;6.32;;;5.10;52.50;;;;;;5081059;28;20044;-44
2022/04/03 08:19:32;;;;;;;13.48;6.38;;;5.10;52.80;;;;;;5080090;28;20067;-42
2022/04/03 08:22:00;;;;;;;11.32;6.22;;;5.10;53.00;;;;;;5077969;28;20043;-44
2022/04/03 08:24:28;;;;;;;10.82;5.57;;;5.00;52.60;;;;;;5078940;28;20234;-43
2022/04/03 08:26:55;;;;;;;13.60;6.25;;;5.00;52.20;;;;;;5080230;28;20060;-43
2022/04/03 08:29:23;;;;;;;9.65;5.57;;;5.10;52.00;;;;;;5079781;28;20052;-44
2022/04/03 08:31:50;;;;;;;10.20;5.80;;;5.10;51.90;;;;;;5077683;28;20062;-43
2022/04/03 08:34:19;;;;;;;13.95;6.13;;;5.00;52.20;;;;;;5079161;28;20044;-43
2022/04/03 08:36:47;;;;;;;13.23;6.85;;;5.10;51.80;;;;;;5079537;28;20048;-43
2022/04/03 08:39:14;;;;;;;13.38;5.80;;;5.10;51.90;;;;;;5076031;28;20048;-43
2022/04/03 08:41:42;;;;;;;12.07;5.93;;;5.20;52.50;;;;;;5078682;28;20060;-43
2022/04/03 08:44:10;;;;;;;14.77;5.85;;;5.30;52.90;;;;;;5076530;28;20059;-43
2022/04/03 08:46:41;;;;;;;9.73;6.22;;;5.30;53.00;;;;;;5075009;28;20449;-43
2022/04/03 08:49:09;;;;;;;12.20;6.05;;;5.40;53.10;;;;;;5081302;28;20067;-43
2022/04/03 08:51:41;;;;;;;12.68;6.38;;;5.40;53.10;;;;;;5079022;28;20408;-45
2022/04/03 08:54:09;;;;;;;10.95;6.05;;;5.60;52.80;;;;;;5077003;28;20059;-43
2022/04/03 08:56:37;;;;;;;10.75;5.95;;;5.60;52.70;;;;;;5080718;28;20056;-43
2022/04/03 08:59:04;;;;;;;11.63;6.00;;;5.80;52.50;;;;;;5078849;28;20056;-46
2022/04/03 09:01:32;;;;;;;10.63;6.45;;;5.90;52.40;;;;;;5079076;28;20052;-45
2022/04/03 09:04:00;;;;;;;15.13;6.93;;;6.00;52.30;;;;;;5083508;28;20423;-43
2022/04/03 09:06:27;;;;;;;10.32;6.22;;;6.10;52.40;;;;;;5084730;28;20052;-43
2022/04/03 09:08:56;;;;;;;11.93;6.15;;;6.10;52.30;;;;;;5085860;28;20052;-43
2022/04/03 09:11:29;;;;;;;11.07;6.25;;;6.30;52.00;;;;;;5084894;28;20492;-43
2022/04/03 09:13:57;;;;;;;10.85;5.78;;;6.30;51.40;;;;;;5084387;28;20420;-45
2022/04/03 09:16:39;;;;;;;11.27;5.72;;;6.30;51.00;;;;;;5086293;28;20494;-43
2022/04/03 09:19:08;;;;;;;9.70;5.63;;;6.30;50.30;;;;;;5085951;28;20511;-43
2022/04/03 09:21:36;;;;;;;9.98;5.85;;;6.30;50.10;;;;;;5083845;28;20059;-43
2022/04/03 09:24:07;;;;;;;12.70;5.97;;;6.30;49.90;;;;;;5084525;28;20478;-48
2022/04/03 09:26:36;;;;;;;9.13;5.75;;;6.30;49.60;;;;;;5084686;28;20056;-43
2022/04/03 09:29:08;;;;;;;11.10;5.63;;;6.30;48.90;;;;;;5086192;28;20055;-43
2022/04/03 09:31:36;;;;;;;10.75;5.90;;;6.30;49.30;;;;;;5084996;28;20052;-43
2022/04/03 09:34:06;;;;;;;11.65;5.22;;;6.40;49.80;;;;;;5084113;28;20063;-43
2022/04/03 09:36:36;;;;;;;6.97;4.97;;;6.40;50.00;;;;;;5084957;28;20063;-43
2022/04/03 09:39:14;;;;;;;7.30;4.70;;;6.50;49.60;;;;;;5084896;28;20056;-44
2022/04/03 09:41:59;;;;;;;7.22;4.07;;;6.60;47.80;;;;;;5083972;28;20085;-44
2022/04/03 09:44:31;;;;;;;7.85;4.13;;;6.60;46.60;;;;;;5085324;28;20048;-44
2022/04/03 09:47:21;;;;;;;8.90;4.30;;;6.70;46.90;;;;;;5084914;28;20054;-45
2022/04/03 09:49:54;;;;;;;7.43;4.05;;;6.70;46.80;;;;;;5078231;28;20407;-43
2022/04/03 09:52:39;;;;;;;6.82;4.03;;;6.80;47.10;;;;;;5084368;28;20052;-43
2022/04/03 09:55:20;;;;;;;6.97;4.25;;;6.90;47.20;;;;;;5083360;28;20060;-44
2022/04/03 09:57:48;;;;;;;5.43;3.65;;;7.00;47.30;;;;;;5083427;28;20059;-45
2022/04/03 10:00:29;;;;;;;7.93;4.03;;;7.10;47.70;;;;;;5085073;28;20862;-43
2022/04/03 10:03:01;;;;;;;10.35;4.18;;;7.20;47.00;;;;;;5083893;28;20052;-45
2022/04/03 10:05:30;;;;;;;6.88;4.78;;;7.30;46.50;;;;;;5084830;28;20052;-43
2022/04/03 10:08:00;;;;;;;8.13;4.40;;;7.40;45.90;;;;;;5084469;28;20055;-43
2022/04/03 10:10:30;;;;;;;7.20;4.32;;;7.40;45.80;;;;;;5082210;28;20055;-44
2022/04/03 10:12:59;;;;;;;12.40;4.50;;;7.50;46.00;;;;;;5081166;28;20059;-43
2022/04/03 10:15:27;;;;;;;7.45;4.57;;;7.50;46.00;;;;;;5082955;28;20063;-44
2022/04/03 10:17:55;;;;;;;7.78;4.28;;;7.60;45.20;;;;;;5083278;28;20503;-44
2022/04/03 10:20:28;;;;;;;7.72;4.18;;;7.60;45.20;;;;;;5083665;28;20052;-44
2022/04/03 10:23:05;;;;;;;8.38;4.28;;;7.60;44.10;;;;;;5083244;28;20066;-45
2022/04/03 10:25:44;;;;;;;6.82;4.00;;;7.60;44.50;;;;;;5083376;28;20060;-44
2022/04/03 10:28:13;;;;;;;6.68;4.10;;;7.60;44.10;;;;;;5083792;28;20055;-48
2022/04/03 10:30:43;;;;;;;7.53;3.80;;;7.60;43.40;;;;;;5084454;28;20055;-44
2022/04/03 10:33:19;;;;;;;6.90;3.55;;;7.60;44.50;;;;;;5080878;28;20396;-44
2022/04/03 10:35:49;;;;;;;8.38;4.05;;;7.60;44.40;;;;;;5083194;28;20055;-44
2022/04/03 10:38:19;;;;;;;9.30;3.88;;;7.60;43.20;;;;;;5083873;28;20052;-43
2022/04/03 10:40:59;;;;;;;6.85;4.03;;;7.60;43.40;;;;;;5082238;28;20399;-43
2022/04/03 10:43:29;;;;;;;8.32;4.78;;;7.70;43.90;;;;;;5083172;28;20048;-44
2022/04/03 10:45:57;;;;;;;9.65;4.13;;;7.80;44.10;;;;;;5078673;28;20416;-44
2022/04/03 10:48:27;;;;;;;7.88;4.30;;;7.80;44.40;;;;;;5081697;28;20059;-44
2022/04/03 10:51:06;;;;;;;9.13;3.83;;;7.80;44.50;;;;;;5081793;28;20051;-45
2022/04/03 10:53:36;;;;;;;7.22;4.10;;;7.90;44.30;;;;;;5080966;28;20490;-43
2022/04/03 10:56:10;;;;;;;5.95;3.80;;;8.00;44.60;;;;;;5080655;28;20056;-44
2022/04/03 10:58:46;;;;;;;5.90;3.97;;;8.00;44.00;;;;;;5083036;28;20507;-44
2022/04/03 11:01:24;;;;;;;8.18;3.55;;;8.10;42.80;;;;;;5082864;28;20066;-44
2022/04/03 11:03:57;;;;;;;6.78;3.83;;;8.10;43.10;;;;;;5083491;28;20557;-44
2022/04/03 11:06:30;;;;;;;6.72;4.13;;;8.20;43.50;;;;;;5082619;28;20060;-45
2022/04/03 11:09:08;;;;;;;9.60;4.07;;;8.30;44.00;;;;;;5081035;28;20051;-44
2022/04/03 11:11:49;;;;;;;6.82;4.47;;;8.30;42.30;;;;;;5080113;28;20079;-43
2022/04/03 11:14:52;;;;;;;11.65;4.47;;;8.30;42.00;;;;;;5081925;28;20507;-45
2022/04/03 11:17:41;;;;;;;7.35;4.60;;;8.20;41.20;;;;;;5075841;28;20427;-44
2022/04/03 11:20:09;;;;;;;5.03;3.17;;;8.20;42.20;;;;;;5080311;28;20052;-44
2022/04/03 11:22:38;;;;;;;7.97;3.97;;;8.20;42.60;;;;;;5081321;28;20060;-46
2022/04/03 11:25:06;;;;;;;6.18;3.30;;;8.20;42.60;;;;;;5080664;28;20052;-44
2022/04/03 11:27:35;;;;;;;8.38;4.30;;;8.20;42.80;;;;;;5079274;28;20060;-43
2022/04/03 11:30:03;;;;;;;5.38;3.00;;;8.20;43.30;;;;;;5081892;28;20416;-44
2022/04/03 11:32:34;;;;;;;7.97;3.85;;;8.20;42.50;;;;;;5081513;28;20150;-44
2022/04/03 11:35:01;;;;;;;6.30;3.25;;;8.20;42.60;;;;;;5080689;28;20056;-44
2022/04/03 11:37:29;;;;;;;5.25;3.10;;;8.30;42.90;;;;;;5081102;28;20429;-44
2022/04/03 11:39:57;;;;;;;6.03;3.60;;;8.30;42.90;;;;;;5080034;28;20048;-44
2022/04/03 11:42:25;;;;;;;8.40;4.05;;;8.30;42.00;;;;;;5080283;28;20048;-43
2022/04/03 11:44:54;;;;;;;9.60;3.30;;;8.30;41.30;;;;;;5078325;28;20123;-43
2022/04/03 11:47:25;;;;;;;6.22;3.95;;;8.30;42.20;;;;;;5081368;28;20056;-44
2022/04/03 11:50:07;;;;;;;5.15;3.80;;;8.40;42.70;;;;;;5080771;28;20059;-43
2022/04/03 11:52:36;;;;;;;7.97;3.65;;;8.50;42.30;;;;;;5079275;28;20519;-43
2022/04/03 11:55:09;;;;;;;7.28;4.03;;;8.50;42.60;;;;;;5078768;28;20048;-44
2022/04/03 11:57:37;;;;;;;6.47;3.47;;;8.60;42.20;;;;;;5079781;28;20397;-45
2022/04/03 12:00:09;;;;;;;5.95;3.90;;;8.60;41.00;;;;;;5080973;28;20058;-44
2022/04/03 12:02:37;;;;;;;5.00;3.15;;;8.60;40.10;;;;;;5078992;28;20055;-44
2022/04/03 12:05:05;;;;;;;5.55;3.22;;;8.60;40.80;;;;;;5080049;28;20238;-43
2022/04/03 12:07:34;;;;;;;5.18;2.95;;;8.50;40.00;;;;;;5080926;28;20056;-44
2022/04/03 12:10:02;;;;;;;5.10;3.15;;;8.50;40.50;;;;;;5078989;28;20048;-44
2022/04/03 12:12:29;;;;;;;7.45;3.50;;;8.50;40.90;;;;;;5079668;28;20051;-43
2022/04/03 12:14:58;;;;;;;4.32;3.05;;;8.50;40.70;;;;;;5080424;28;21265;-44
2022/04/03 12:17:27;;;;;;;5.18;3.38;;;8.50;41.30;;;;;;5081821;28;20510;-44
2022/04/03 12:19:55;;;;;;;8.40;3.50;;;8.50;40.90;;;;;;5080342;28;20479;-43
2022/04/03 12:22:25;;;;;;;5.43;2.88;;;8.60;41.40;;;;;;5080447;28;20105;-43
2022/04/03 12:24:55;;;;;;;4.72;3.38;;;8.60;41.70;;;;;;5078245;28;20048;-43
2022/04/03 12:27:25;;;;;;;4.57;3.05;;;8.60;41.70;;;;;;5080168;28;20401;-46
2022/04/03 12:29:54;;;;;;;4.95;3.55;;;8.70;40.40;;;;;;5077396;28;20052;-44
2022/04/03 12:32:36;;;;;;;5.95;3.35;;;8.70;40.40;;;;;;5080044;28;20059;-44
2022/04/03 12:35:05;;;;;;;8.80;3.78;;;8.80;40.30;;;;;;5077700;28;20051;-45
2022/04/03 12:37:35;;;;;;;7.05;3.70;;;8.80;40.90;;;;;;5079231;28;20496;-44
2022/04/03 12:40:04;;;;;;;5.97;3.45;;;8.80;41.10;;;;;;5076863;28;20051;-44
2022/04/03 12:42:34;;;;;;;5.53;4.15;;;8.90;41.40;;;;;;5079319;28;20541;-43
2022/04/03 12:45:05;;;;;;;6.38;3.47;;;9.00;41.50;;;;;;5077743;28;20051;-43
2022/04/03 12:47:39;;;;;;;4.93;3.13;;;9.00;39.90;;;;;;5080045;28;20431;-44
2022/04/03 12:50:18;;;;;;;4.03;2.60;;;9.00;40.10;;;;;;5077980;28;20099;-44
2022/04/03 12:52:51;;;;;;;10.05;2.83;;;9.00;40.30;;;;;;5079979;28;20055;-44
2022/04/03 12:55:49;;;;;;;6.82;3.13;;;9.00;41.00;;;;;;5077049;28;21046;-43
2022/04/03 12:58:29;;;;;;;5.97;3.60;;;9.10;40.70;;;;;;5079304;28;20491;-44
2022/04/03 13:01:00;;;;;;;6.43;3.15;;;9.10;40.10;;;;;;5078645;28;20052;-43
2022/04/03 13:03:33;;;;;;;5.60;3.10;;;9.10;40.40;;;;;;5077815;28;20056;-45
2022/04/03 13:06:03;;;;;;;5.72;3.58;;;9.10;40.00;;;;;;5077208;28;20431;-43
2022/04/03 13:08:50;;;;;;;6.85;3.90;;;9.00;40.70;;;;;;5072580;28;20357;-44
2022/04/03 13:11:32;;;;;;;4.03;2.90;;;9.10;41.20;;;;;;5074306;28;20056;-45
2022/04/03 13:14:17;;;;;;;5.30;3.53;;;9.10;41.00;;;;;;5078201;28;20067;-43
2022/04/03 13:16:45;;;;;;;6.95;3.50;;;9.20;41.40;;;;;;5067673;28;20059;-44
2022/04/03 13:19:14;;;;;;;6.03;4.05;;;9.40;41.20;;;;;;5069367;28;20514;-44
2022/04/03 13:21:42;;;;;;;4.95;3.17;;;9.40;40.90;;;;;;5074098;28;20067;-43